Time;durP1;ratioP1;P1;durP2;ratioP2;P2;SDS_P1;SDS_P2;PMS_P1;PMS_P2;Temp;Humidity;BMP_temperature;BMP_pressure;BME280_temperature;BME280_humidity;BME280_pressure;Samples;Min_cycle;Max_cycle;Signal;HPM_P1;HPM_P2
2022/03/28 00:02:12;;;;;;;;;;;9.50;91.10;;;;;;5106758;28;19942;-66
2022/03/28 00:04:38;;;;;;;;;;;9.50;91.10;;;;;;5107021;28;19917;-67
2022/03/28 00:07:04;;;;;;;;;;;9.40;91.20;;;;;;5106874;28;19908;-67
2022/03/28 00:09:29;;;;;;;;;;;9.30;91.50;;;;;;5107274;28;19908;-67
2022/03/28 00:11:55;;;;;;;;;;;9.30;91.30;;;;;;5106536;28;20200;-67
2022/03/28 00:14:21;;;;;;;;;;;9.20;91.40;;;;;;5106417;28;19915;-67
2022/03/28 00:16:46;;;;;;;;;;;9.20;91.50;;;;;;5105631;28;19965;-66
2022/03/28 00:19:12;;;;;;;;;;;9.10;91.40;;;;;;5106518;28;19912;-67
2022/03/28 00:21:38;;;;;;;;;;;9.10;91.40;;;;;;5106289;28;20178;-67
2022/03/28 00:24:04;;;;;;;;;;;9.10;91.30;;;;;;5106459;28;20003;-68
2022/03/28 00:26:31;;;;;;;;;;;9.00;91.40;;;;;;5106289;28;19920;-66
2022/03/28 00:28:56;;;;;;;;;;;9.00;91.50;;;;;;5106427;28;20096;-66
2022/03/28 00:31:22;;;;;;;;;;;8.90;91.60;;;;;;5105794;28;19923;-66
2022/03/28 00:33:48;;;;;;;;;;;8.80;91.60;;;;;;5106316;28;19974;-66
2022/03/28 00:36:14;;;;;;;;;;;8.80;91.60;;;;;;5105059;28;20142;-65
2022/03/28 00:38:39;;;;;;;;;;;8.80;91.90;;;;;;5106161;28;19936;-65
2022/03/28 00:41:05;;;;;;;;;;;8.70;91.80;;;;;;5105813;28;20194;-66
2022/03/28 00:43:31;;;;;;;;;;;8.70;91.80;;;;;;5106183;28;19908;-66
2022/03/28 00:45:57;;;;;;;;;;;8.70;91.90;;;;;;5105104;28;20115;-66
2022/03/28 00:48:26;;;;;;;;;;;8.60;92.00;;;;;;5106018;28;19908;-66
2022/03/28 00:50:55;;;;;;;;;;;8.50;92.10;;;;;;5105658;28;19908;-66
2022/03/28 00:53:21;;;;;;;;;;;8.50;92.20;;;;;;5105822;28;19916;-65
2022/03/28 00:55:47;;;;;;;;;;;8.40;92.20;;;;;;5106023;28;20125;-65
2022/03/28 00:58:12;;;;;;;;;;;8.30;92.20;;;;;;5105794;28;19935;-66
2022/03/28 01:00:38;;;;;;;;;;;8.40;92.20;;;;;;5103599;28;19912;-66
2022/03/28 01:03:04;;;;;;;;;;;8.30;92.20;;;;;;5105676;28;20199;-66
2022/03/28 01:05:31;;;;;;;;;;;8.30;92.20;;;;;;5105778;28;19946;-67
2022/03/28 01:07:56;;;;;;;;;;;8.40;92.10;;;;;;5105429;28;19914;-66
2022/03/28 01:10:23;;;;;;;;;;;8.40;91.90;;;;;;5105565;28;19908;-64
2022/03/28 01:12:49;;;;;;;;;;;8.40;91.90;;;;;;5105438;28;19912;-65
2022/03/28 01:15:15;;;;;;;;;;;8.40;91.90;;;;;;5087249;28;20202;-66
2022/03/28 01:20:28;;;;;;;;;;;8.30;92.10;;;;;;5105374;28;19982;-65
2022/03/28 01:22:54;;;;;;;;;;;8.30;92.20;;;;;;5105452;28;20115;-66
2022/03/28 01:25:24;;;;;;;;;;;8.20;92.50;;;;;;5105467;28;19946;-65
2022/03/28 01:27:52;;;;;;;;;;;8.10;92.80;;;;;;5105148;28;19912;-66
2022/03/28 01:30:22;;;;;;;;;;;8.10;92.80;;;;;;5103948;28;19931;-65
2022/03/28 01:32:48;;;;;;;;;;;8.10;92.80;;;;;;5104966;28;19946;-65
2022/03/28 01:35:28;;;;;;;;;;;8.00;92.90;;;;;;5105172;28;19916;-65
2022/03/28 01:37:53;;;;;;;;;;;8.00;93.10;;;;;;5105021;28;19908;-67
2022/03/28 01:40:19;;;;;;;;;;;8.00;93.10;;;;;;5104994;28;19909;-65
2022/03/28 01:42:45;;;;;;;;;;;7.90;93.20;;;;;;5104693;28;19930;-66
2022/03/28 01:45:12;;;;;;;;;;;8.00;93.30;;;;;;5104090;28;20017;-66
2022/03/28 01:47:38;;;;;;;;;;;7.90;93.40;;;;;;5105010;28;19939;-67
2022/03/28 01:50:05;;;;;;;;;;;7.90;93.60;;;;;;5105015;28;19915;-66
2022/03/28 01:52:30;;;;;;;;;;;7.90;93.80;;;;;;5104552;28;19908;-66
2022/03/28 01:54:56;;;;;;;;;;;7.80;93.70;;;;;;5104814;28;19970;-66
2022/03/28 01:57:22;;;;;;;;;;;7.90;93.80;;;;;;5104714;28;19908;-66
2022/03/28 01:59:48;;;;;;;;;;;7.80;93.80;;;;;;5104241;28;20266;-66
2022/03/28 02:02:13;;;;;;;;;;;7.90;93.80;;;;;;5104261;28;19923;-65
2022/03/28 02:04:39;;;;;;;;;;;7.80;93.90;;;;;;5104538;28;20278;-66
2022/03/28 02:07:05;;;;;;;;;;;7.70;94.10;;;;;;5104468;28;19939;-66
2022/03/28 02:09:30;;;;;;;;;;;7.70;94.10;;;;;;5104423;28;20167;-66
2022/03/28 02:11:56;;;;;;;;;;;7.70;94.10;;;;;;5103819;28;19908;-66
2022/03/28 02:14:22;;;;;;;;;;;7.70;94.10;;;;;;5103576;28;19915;-65
2022/03/28 02:16:47;;;;;;;;;;;7.60;94.20;;;;;;5104270;28;19947;-66
2022/03/28 02:19:13;;;;;;;;;;;7.60;94.20;;;;;;5104453;28;20363;-66
2022/03/28 02:21:39;;;;;;;;;;;7.60;94.10;;;;;;5104166;28;19915;-66
2022/03/28 02:24:05;;;;;;;;;;;7.60;93.90;;;;;;5104185;28;20140;-66
2022/03/28 02:26:31;;;;;;;;;;;7.70;93.70;;;;;;5104099;28;20085;-66
2022/03/28 02:28:56;;;;;;;;;;;7.70;93.80;;;;;;5104014;28;19915;-66
2022/03/28 02:31:22;;;;;;;;;;;7.60;93.70;;;;;;5103457;28;19982;-65
2022/03/28 02:33:48;;;;;;;;;;;7.60;93.80;;;;;;5104016;28;20249;-66
2022/03/28 02:36:13;;;;;;;;;;;7.60;93.70;;;;;;5103877;28;19908;-66
2022/03/28 02:38:39;;;;;;;;;;;7.50;94.00;;;;;;5104039;28;20316;-66
2022/03/28 02:41:05;;;;;;;;;;;7.40;94.20;;;;;;5103500;28;19908;-66
2022/03/28 02:43:30;;;;;;;;;;;7.40;94.50;;;;;;5103685;28;20225;-65
2022/03/28 02:45:56;;;;;;;;;;;7.30;94.60;;;;;;5102678;28;19908;-66
2022/03/28 02:48:22;;;;;;;;;;;7.30;94.60;;;;;;5103711;28;19979;-66
2022/03/28 02:50:49;;;;;;;;;;;7.30;94.50;;;;;;5103471;28;20084;-66
2022/03/28 02:53:15;;;;;;;;;;;7.30;94.50;;;;;;5103577;28;19908;-66
2022/03/28 02:55:41;;;;;;;;;;;7.30;94.70;;;;;;5103591;28;19908;-66
2022/03/28 02:58:06;;;;;;;;;;;7.30;94.40;;;;;;5103405;28;19911;-65
2022/03/28 03:00:32;;;;;;;;;;;7.30;94.40;;;;;;5103214;28;20126;-64
2022/03/28 03:02:58;;;;;;;;;;;7.20;94.30;;;;;;5102539;28;19943;-66
2022/03/28 03:05:23;;;;;;;;;;;7.20;94.40;;;;;;5103561;28;20249;-66
2022/03/28 03:07:49;;;;;;;;;;;7.20;94.40;;;;;;5103424;28;19930;-66
2022/03/28 03:10:15;;;;;;;;;;;7.20;94.20;;;;;;5103342;28;19908;-65
2022/03/28 03:12:41;;;;;;;;;;;7.30;94.30;;;;;;5103266;28;20086;-66
2022/03/28 03:15:07;;;;;;;;;;;7.40;94.10;;;;;;5103012;28;19914;-66
2022/03/28 03:17:33;;;;;;;;;;;7.30;94.10;;;;;;5102243;28;20248;-66
2022/03/28 03:19:58;;;;;;;;;;;7.20;94.30;;;;;;5103218;28;19912;-67
2022/03/28 03:22:24;;;;;;;;;;;7.10;94.50;;;;;;5102929;28;19908;-67
2022/03/28 03:24:50;;;;;;;;;;;7.00;94.60;;;;;;5102544;28;19945;-67
2022/03/28 03:27:15;;;;;;;;;;;7.00;94.60;;;;;;5102984;28;20103;-68
2022/03/28 03:29:41;;;;;;;;;;;6.90;94.70;;;;;;5103168;28;19927;-67
2022/03/28 03:32:07;;;;;;;;;;;6.80;94.90;;;;;;5102666;28;19908;-67
2022/03/28 03:34:33;;;;;;;;;;;6.80;94.90;;;;;;5103096;28;19908;-66
2022/03/28 03:37:00;;;;;;;;;;;6.80;94.90;;;;;;5102985;28;19979;-66
2022/03/28 03:39:25;;;;;;;;;;;6.80;94.70;;;;;;5102983;28;19916;-66
2022/03/28 03:41:52;;;;;;;;;;;6.80;94.50;;;;;;5102791;28;20059;-66
2022/03/28 03:44:17;;;;;;;;;;;6.70;94.60;;;;;;5102319;28;19920;-66
2022/03/28 03:46:43;;;;;;;;;;;6.70;94.70;;;;;;5103031;28;19992;-66
2022/03/28 03:49:09;;;;;;;;;;;6.70;94.70;;;;;;5102991;28;19909;-66
2022/03/28 03:51:35;;;;;;;;;;;6.70;94.40;;;;;;5101463;28;19908;-66
2022/03/28 03:54:01;;;;;;;;;;;6.60;94.60;;;;;;5102893;28;19943;-66
2022/03/28 03:56:30;;;;;;;;;;;6.60;94.60;;;;;;5102823;28;19908;-66
2022/03/28 03:58:56;;;;;;;;;;;6.60;94.60;;;;;;5102872;28;19912;-66
2022/03/28 04:01:22;;;;;;;;;;;6.50;94.70;;;;;;5102510;28;19908;-66
2022/03/28 04:03:48;;;;;;;;;;;6.50;94.70;;;;;;5102939;28;19908;-66
2022/03/28 04:06:14;;;;;;;;;;;6.50;94.80;;;;;;5101576;28;19908;-66
2022/03/28 04:08:39;;;;;;;;;;;6.40;94.80;;;;;;5102747;28;19908;-66
2022/03/28 04:11:06;;;;;;;;;;;6.50;94.70;;;;;;5102499;28;19908;-66
2022/03/28 04:13:35;;;;;;;;;;;6.60;94.60;;;;;;5101629;28;19908;-66
2022/03/28 04:16:01;;;;;;;;;;;6.50;94.40;;;;;;5102491;28;19943;-66
2022/03/28 04:18:27;;;;;;;;;;;6.40;94.70;;;;;;5102070;28;20218;-66
2022/03/28 04:20:54;;;;;;;;;;;6.40;94.90;;;;;;5102330;28;19923;-67
2022/03/28 04:23:20;;;;;;;;;;;6.30;94.90;;;;;;5102798;28;20161;-66
2022/03/28 04:25:45;;;;;;;;;;;6.40;94.80;;;;;;5102158;28;20114;-66
2022/03/28 04:28:11;;;;;;;;;;;6.30;94.80;;;;;;5102720;28;19916;-66
2022/03/28 04:30:37;;;;;;;;;;;6.30;95.00;;;;;;5102033;28;19908;-67
2022/03/28 04:33:03;;;;;;;;;;;6.20;95.20;;;;;;5102567;28;20158;-66
2022/03/28 04:35:29;;;;;;;;;;;6.20;95.30;;;;;;5102646;28;19954;-66
2022/03/28 04:37:55;;;;;;;;;;;6.10;95.20;;;;;;5106050;28;19942;-66
2022/03/28 04:40:20;;;;;;;;;;;6.10;95.30;;;;;;5106154;28;19916;-66
2022/03/28 04:42:46;;;;;;;;;;;6.10;95.30;;;;;;5105876;28;19915;-64
2022/03/28 04:45:12;;;;;;;;;;;6.10;95.20;;;;;;5103968;28;19930;-64
2022/03/28 04:47:38;;;;;;;;;;;6.20;94.80;;;;;;5105847;28;19916;-65
2022/03/28 04:50:05;;;;;;;;;;;6.10;94.60;;;;;;5106086;28;19908;-65
2022/03/28 04:52:30;;;;;;;;;;;6.10;94.70;;;;;;5105888;28;19908;-64
2022/03/28 04:54:56;;;;;;;;;;;6.20;94.40;;;;;;5105837;28;19975;-64
2022/03/28 04:57:22;;;;;;;;;;;6.10;94.70;;;;;;5105903;28;19908;-64
2022/03/28 04:59:48;;;;;;;;;;;5.90;95.00;;;;;;5105516;28;20211;-63
2022/03/28 05:02:14;;;;;;;;;;;5.90;95.20;;;;;;5104350;28;20195;-62
2022/03/28 05:04:41;;;;;;;;;;;5.80;95.40;;;;;;5105610;28;20138;-63
2022/03/28 05:07:06;;;;;;;;;;;5.80;95.50;;;;;;5105537;28;19907;-63
2022/03/28 05:09:32;;;;;;;;;;;5.80;95.60;;;;;;5104528;28;19908;-63
2022/03/28 05:11:58;;;;;;;;;;;5.70;95.60;;;;;;5105178;28;19979;-63
2022/03/28 05:14:24;;;;;;;;;;;5.80;95.50;;;;;;5099770;28;20043;-64
2022/03/28 05:16:49;;;;;;;;;;;5.80;95.50;;;;;;5096622;28;20127;-63
2022/03/28 05:19:16;;;;;;;;;;;5.80;95.50;;;;;;5099192;28;19950;-63
2022/03/28 05:21:41;;;;;;;;;;;5.80;95.60;;;;;;5085582;28;20147;-63
2022/03/28 05:24:07;;;;;;;;;;;5.70;95.70;;;;;;5084902;28;19977;-63
2022/03/28 05:26:33;;;;;;;;;;;5.70;95.70;;;;;;5083549;28;19912;-65
2022/03/28 05:28:58;;;;;;;;;;;5.80;95.70;;;;;;5084985;28;19923;-64
2022/03/28 05:31:24;;;;;;;;;;;5.80;95.60;;;;;;5086441;28;19912;-62
2022/03/28 05:33:50;;;;;;;;;;;5.80;95.60;;;;;;5101243;28;19912;-63
2022/03/28 05:36:16;;;;;;;;;;;5.80;95.50;;;;;;5103529;28;19908;-63
2022/03/28 05:38:42;;;;;;;;;;;5.90;95.50;;;;;;5103543;28;19912;-63
2022/03/28 05:41:08;;;;;;;;;;;6.00;95.20;;;;;;5104533;28;19908;-63
2022/03/28 05:43:35;;;;;;;;;;;6.20;95.00;;;;;;5104617;28;19924;-63
2022/03/28 05:46:01;;;;;;;;;;;6.10;95.00;;;;;;5103411;28;19947;-62
2022/03/28 05:48:26;;;;;;;;;;;6.20;95.10;;;;;;5104606;28;20021;-62
2022/03/28 05:50:52;;;;;;;;;;;6.10;95.20;;;;;;5104536;28;19909;-63
2022/03/28 05:53:18;;;;;;;;;;;6.20;95.20;;;;;;5104629;28;19951;-63
2022/03/28 05:55:43;;;;;;;;;;;6.20;95.20;;;;;;5104441;28;19983;-62
2022/03/28 05:58:10;;;;;;;;;;;6.20;95.20;;;;;;5104466;28;19908;-63
2022/03/28 06:00:36;;;;;;;;;;;6.30;95.20;;;;;;5104013;28;19908;-63
2022/03/28 06:03:05;;;;;;;;;;;6.30;95.10;;;;;;5104514;28;20230;-63
2022/03/28 06:05:31;;;;;;;;;;;6.40;95.00;;;;;;5104570;28;19935;-62
2022/03/28 06:07:58;;;;;;;;;;;6.50;94.90;;;;;;5103197;28;19979;-63
2022/03/28 06:10:23;;;;;;;;;;;6.50;95.00;;;;;;5104251;28;19908;-63
2022/03/28 06:12:49;;;;;;;;;;;6.70;95.10;;;;;;5104010;28;20218;-62
2022/03/28 06:15:15;;;;;;;;;;;6.80;95.00;;;;;;5104103;28;19908;-62
2022/03/28 06:17:43;;;;;;;;;;;7.00;94.80;;;;;;5103174;28;19908;-62
2022/03/28 06:20:10;;;;;;;;;;;7.10;94.70;;;;;;5096118;28;20172;-63
2022/03/28 06:22:35;;;;;;;;;;;7.20;94.40;;;;;;5093251;28;19953;-63
2022/03/28 06:25:02;;;;;;;;;;;7.30;94.20;;;;;;5091803;28;19944;-62
2022/03/28 06:27:27;;;;;;;;;;;7.40;94.00;;;;;;5093369;28;19920;-63
2022/03/28 06:29:53;;;;;;;;;;;7.50;94.00;;;;;;5091950;28;19971;-62
2022/03/28 06:32:19;;;;;;;;;;;7.60;93.90;;;;;;5091677;28;19908;-63
2022/03/28 06:34:45;;;;;;;;;;;7.60;93.80;;;;;;5094895;28;20179;-63
2022/03/28 06:37:11;;;;;;;;;;;7.60;93.90;;;;;;5093349;22;19921;-67
2022/03/28 06:39:36;;;;;;;;;;;7.60;94.10;;;;;;5062141;28;19944;-67
2022/03/28 06:42:03;;;;;;;;;;;7.70;94.10;;;;;;5063101;28;19909;-67
2022/03/28 06:44:30;;;;;;;;;;;7.70;94.10;;;;;;5060582;28;20289;-67
2022/03/28 06:46:56;;;;;;;;;;;7.80;94.10;;;;;;5040286;28;19913;-69
2022/03/28 06:49:22;;;;;;;;;;;8.00;93.80;;;;;;5023549;28;19934;-68
2022/03/28 06:51:48;;;;;;;;;;;8.10;93.60;;;;;;5023081;28;20031;-69
2022/03/28 06:54:14;;;;;;;;;;;8.20;93.10;;;;;;5023593;28;19918;-69
2022/03/28 06:56:41;;;;;;;;;;;8.20;93.30;;;;;;5023460;28;19916;-69
2022/03/28 06:59:08;;;;;;;;;;;8.20;93.40;;;;;;5023354;28;20047;-70
2022/03/28 07:01:36;;;;;;;;;;;8.40;93.20;;;;;;5023111;28;19910;-70
2022/03/28 07:04:03;;;;;;;;;;;8.40;92.80;;;;;;4990057;28;19916;-70
2022/03/28 07:06:29;;;;;;;;;;;8.50;92.50;;;;;;5021716;28;19977;-69
2022/03/28 07:08:55;;;;;;;;;;;8.50;92.60;;;;;;5023265;28;19909;-70
2022/03/28 07:11:20;;;;;;;;;;;8.70;92.40;;;;;;5022903;28;19983;-70
2022/03/28 07:13:46;;;;;;;;;;;8.70;92.30;;;;;;5005586;28;19933;-70
2022/03/28 07:16:12;;;;;;;;;;;8.70;92.40;;;;;;5018075;28;19916;-71
2022/03/28 07:18:37;;;;;;;;;;;8.70;92.50;;;;;;5042464;28;19980;-71
2022/03/28 07:21:03;;;;;;;;;;;8.80;92.50;;;;;;5008177;28;20200;-68
2022/03/28 07:23:30;;;;;;;;;;;9.00;92.30;;;;;;5042302;28;19909;-66
2022/03/28 07:25:56;;;;;;;;;;;9.30;91.70;;;;;;5042242;28;19917;-67
2022/03/28 07:28:22;;;;;;;;;;;9.40;91.40;;;;;;5042369;28;20140;-68
2022/03/28 07:30:47;;;;;;;;;;;9.50;91.00;;;;;;5042098;28;19908;-68
2022/03/28 07:33:13;;;;;;;;;;;9.40;91.10;;;;;;5024884;28;19913;-68
2022/03/28 07:35:39;;;;;;;;;;;9.50;91.20;;;;;;5042448;28;20101;-70
2022/03/28 07:38:10;;;;;;;;;;;9.40;91.40;;;;;;5041893;28;19920;-70
2022/03/28 07:40:37;;;;;;;;;;;9.40;91.40;;;;;;5025250;28;19940;-69
2022/03/28 07:43:03;;;;;;;;;;;9.50;91.40;;;;;;4992529;28;19909;-68
2022/03/28 07:45:29;;;;;;;;;;;9.50;91.50;;;;;;5022126;28;19940;-68
2022/03/28 07:47:54;;;;;;;;;;;9.60;91.50;;;;;;5062467;28;20301;-69
2022/03/28 07:50:20;;;;;;;;;;;9.70;91.20;;;;;;5062016;28;19920;-69
2022/03/28 07:52:46;;;;;;;;;;;9.80;91.10;;;;;;5061405;28;19909;-69
2022/03/28 07:55:14;;;;;;;;;;;9.90;91.10;;;;;;5062314;28;19924;-68
2022/03/28 07:57:40;;;;;;;;;;;10.10;90.80;;;;;;5044450;28;19917;-69
2022/03/28 08:00:10;;;;;;;;;;;10.20;90.60;;;;;;5062584;28;20093;-70
2022/03/28 08:02:36;;;;;;;;;;;10.20;90.40;;;;;;5028424;28;19909;-71
2022/03/28 08:05:02;;;;;;;;;;;10.30;90.60;;;;;;5044761;28;20104;-71
2022/03/28 08:07:28;;;;;;;;;;;10.40;90.50;;;;;;5061756;28;19940;-71
2022/03/28 08:09:54;;;;;;;;;;;10.50;90.20;;;;;;5061432;28;19908;-69
2022/03/28 08:12:20;;;;;;;;;;;10.60;90.20;;;;;;5064868;28;20200;-69
2022/03/28 08:14:46;;;;;;;;;;;10.80;89.60;;;;;;5065577;28;19916;-70
2022/03/28 08:17:11;;;;;;;;;;;10.90;89.30;;;;;;5063311;28;19963;-70
2022/03/28 08:19:37;;;;;;;;;;;11.00;88.80;;;;;;5065952;28;19913;-70
2022/03/28 08:22:03;;;;;;;;;;;11.10;88.30;;;;;;5065539;28;20096;-70
2022/03/28 08:24:28;;;;;;;;;;;11.20;87.80;;;;;;5065815;28;19971;-70
2022/03/28 08:26:54;;;;;;;;;;;11.30;87.40;;;;;;5065728;28;19908;-70
2022/03/28 08:29:20;;;;;;;;;;;11.40;87.30;;;;;;5066186;28;19970;-70
2022/03/28 08:31:45;;;;;;;;;;;11.50;86.80;;;;;;5065563;28;19940;-69
2022/03/28 08:34:11;;;;;;;;;;;11.60;86.80;;;;;;5065875;28;19920;-70
2022/03/28 08:36:37;;;;;;;;;;;11.60;86.10;;;;;;5065293;28;19955;-70
2022/03/28 08:39:03;;;;;;;;;;;11.70;86.30;;;;;;5047905;28;19921;-70
2022/03/28 08:41:29;;;;;;;;;;;11.80;86.40;;;;;;5058634;28;20230;-70
2022/03/28 08:43:55;;;;;;;;;;;11.90;85.10;;;;;;5011939;28;19936;-70
2022/03/28 08:46:20;;;;;;;;;;;12.10;84.30;;;;;;5045514;28;19916;-71
2022/03/28 08:48:47;;;;;;;;;;;12.30;82.80;;;;;;5045573;28;20112;-69
2022/03/28 08:51:13;;;;;;;;;;;12.40;82.80;;;;;;5027835;28;19963;-70
2022/03/28 08:53:42;;;;;;;;;;;12.30;83.50;;;;;;5011410;28;19909;-70
2022/03/28 08:56:08;;;;;;;;;;;12.40;83.90;;;;;;5045411;28;19962;-70
2022/03/28 08:58:34;;;;;;;;;;;12.50;82.70;;;;;;5027826;28;20235;-70
2022/03/28 09:01:01;;;;;;;;;;;12.70;82.40;;;;;;5027452;28;19912;-70
2022/03/28 09:03:40;;;;;;;;;;;12.70;81.80;;;;;;5045132;28;19924;-70
2022/03/28 09:06:34;;;;;;;;;;;13.00;79.00;;;;;;5045373;28;19909;-70
2022/03/28 09:09:20;;;;;;;;;;;13.20;77.30;;;;;;5030977;28;19917;-70
2022/03/28 09:11:51;;;;;;;;;;;13.20;77.50;;;;;;5027758;28;19919;-70
2022/03/28 09:14:29;;;;;;;;;;;13.20;77.60;;;;;;5012030;28;20205;-70
2022/03/28 09:17:06;;;;;;;;;;;13.20;77.70;;;;;;5045713;28;19909;-65
2022/03/28 09:19:45;;;;;;;;;;;13.40;77.20;;;;;;5027407;28;19913;-65
2022/03/28 09:22:12;;;;;;;;;;;13.60;76.10;;;;;;5044517;28;19947;-65
2022/03/28 09:24:38;;;;;;;;;;;13.70;76.00;;;;;;5061707;28;19986;-65
2022/03/28 09:27:14;;;;;;;;;;;13.90;76.30;;;;;;5064746;28;19912;-66
2022/03/28 09:30:04;;;;;;;;;;;14.10;74.10;;;;;;5064591;28;20108;-65
2022/03/28 09:32:31;;;;;;;;;;;14.10;75.50;;;;;;5064012;28;20004;-65
2022/03/28 09:35:20;;;;;;;;;;;14.30;72.20;;;;;;5064547;28;20120;-66
2022/03/28 09:38:02;;;;;;;;;;;14.50;69.90;;;;;;5064171;28;19939;-65
2022/03/28 09:40:32;;;;;;;;;;;14.40;70.60;;;;;;5064467;28;19916;-66
2022/03/28 09:42:58;;;;;;;;;;;14.40;70.80;;;;;;5064331;28;20198;-65
2022/03/28 09:45:30;;;;;;;;;;;14.40;69.90;;;;;;5064244;28;19931;-66
2022/03/28 09:48:04;;;;;;;;;;;14.50;69.70;;;;;;5046538;28;20155;-65
2022/03/28 09:50:35;;;;;;;;;;;14.80;65.90;;;;;;5044717;28;19909;-65
2022/03/28 09:53:25;;;;;;;;;;;14.90;67.10;;;;;;5044173;28;19909;-66
2022/03/28 09:55:53;;;;;;;;;;;15.00;66.60;;;;;;5044350;28;19909;-66
2022/03/28 09:58:37;;;;;;;;;;;15.10;66.40;;;;;;5044476;28;19932;-66
2022/03/28 10:04:28;;;;;;;;;;;15.40;68.50;;;;;;5044237;28;19916;-66
2022/03/28 10:06:56;;;;;;;;;;;15.60;66.70;;;;;;5026758;28;19980;-66
2022/03/28 10:09:21;;;;;;;;;;;15.90;66.90;;;;;;5026901;28;20110;-67
2022/03/28 10:11:47;;;;;;;;;;;15.90;65.60;;;;;;5026117;28;19909;-65
2022/03/28 10:14:13;;;;;;;;;;;16.00;63.30;;;;;;5026485;28;19909;-66
2022/03/28 10:16:39;;;;;;;;;;;16.20;62.50;;;;;;5030884;28;19932;-66
2022/03/28 10:19:05;;;;;;;;;;;16.50;60.40;;;;;;5009860;28;19937;-66
2022/03/28 10:21:36;;;;;;;;;;;16.60;59.20;;;;;;5025842;28;19913;-66
2022/03/28 10:24:10;;;;;;;;;;;16.70;58.90;;;;;;5026397;28;19913;-67
2022/03/28 10:26:47;;;;;;;;;;;16.90;57.50;;;;;;5026388;28;20230;-67
2022/03/28 10:29:17;;;;;;;;;;;17.20;56.40;;;;;;5026286;28;19909;-66
2022/03/28 10:31:56;;;;;;;;;;;17.40;57.70;;;;;;5042941;28;19931;-66
2022/03/28 10:34:41;;;;;;;;;;;17.70;54.50;;;;;;5043089;28;20194;-65
2022/03/28 10:37:41;;;;;;;;;;;18.00;52.20;;;;;;5043367;28;19972;-67
2022/03/28 10:40:18;;;;;;;;;;;18.00;52.20;;;;;;5043569;28;19920;-67
2022/03/28 10:42:55;;;;;;;;;;;18.10;51.40;;;;;;5043012;28;19909;-67
2022/03/28 10:45:21;;;;;;;;;;;18.30;51.30;;;;;;5043372;28;19917;-68
2022/03/28 10:47:53;;;;;;;;;;;18.40;50.50;;;;;;5049519;28;19980;-66
2022/03/28 10:50:21;;;;;;;;;;;18.60;49.80;;;;;;5043342;28;19909;-68
2022/03/28 10:53:07;;;;;;;;;;;18.80;49.00;;;;;;5025423;28;19909;-66
2022/03/28 10:55:44;;;;;;;;;;;19.00;48.60;;;;;;5042974;28;20196;-66
2022/03/28 10:58:27;;;;;;;;;;;19.30;47.90;;;;;;5043029;28;19945;-66
2022/03/28 11:01:11;;;;;;;;;;;19.50;46.40;;;;;;5042641;28;20208;-66
2022/03/28 11:03:55;;;;;;;;;;;19.90;47.90;;;;;;5043179;28;19916;-66
2022/03/28 11:06:43;;;;;;;;;;;20.20;44.10;;;;;;5042671;28;19916;-66
2022/03/28 11:09:09;;;;;;;;;;;20.20;42.80;;;;;;5024641;28;19920;-66
2022/03/28 11:11:35;;;;;;;;;;;20.40;43.30;;;;;;5042622;28;19909;-65
2022/03/28 11:14:11;;;;;;;;;;;20.60;41.80;;;;;;5058115;28;20148;-65
2022/03/28 11:16:39;;;;;;;;;;;21.00;41.40;;;;;;5038423;28;19909;-66
2022/03/28 11:19:32;;;;;;;;;;;21.20;42.30;;;;;;5023018;28;19917;-67
2022/03/28 11:22:04;;;;;;;;;;;21.50;41.00;;;;;;5022354;28;19935;-66
2022/03/28 11:24:42;;;;;;;;;;;21.90;40.90;;;;;;5035569;28;19916;-65
2022/03/28 11:27:09;;;;;;;;;;;22.20;36.60;;;;;;5062674;28;19909;-66
2022/03/28 11:29:34;;;;;;;;;;;22.50;35.70;;;;;;5062742;28;19909;-65
2022/03/28 11:32:05;;;;;;;;;;;22.50;35.80;;;;;;5044908;28;19943;-65
2022/03/28 11:34:31;;;;;;;;;;;22.80;36.10;;;;;;5063052;28;20187;-66
2022/03/28 11:36:57;;;;;;;;;;;23.30;35.90;;;;;;5044904;28;19912;-66
2022/03/28 11:39:25;;;;;;;;;;;23.60;34.00;;;;;;5062361;28;19913;-67
2022/03/28 11:41:51;;;;;;;;;;;23.90;33.70;;;;;;5062445;28;19916;-66
2022/03/28 11:44:17;;;;;;;;;;;23.80;33.50;;;;;;5062672;28;19913;-66
2022/03/28 11:46:43;;;;;;;;;;;23.90;33.60;;;;;;5065096;28;19990;-66
2022/03/28 11:49:10;;;;;;;;;;;24.40;33.30;;;;;;5049151;28;19909;-66
2022/03/28 11:51:40;;;;;;;;;;;24.80;32.40;;;;;;5066573;28;19909;-66
2022/03/28 11:54:08;;;;;;;;;;;25.60;32.00;;;;;;5066683;28;19909;-67
2022/03/28 11:58:14;;;;;;;;;;;26.70;30.10;;;;;;5041738;28;19908;-70
2022/03/28 11:59:23;;;;;;;;;;;27.90;29.00;;;;;;5039826;28;19980;-71
2022/03/28 12:01:56;;;;;;;;;;;29.30;28.10;;;;;;5046073;28;19916;-71
2022/03/28 12:04:22;;;;;;;;;;;30.40;26.50;;;;;;5046451;28;19913;-71
2022/03/28 12:06:47;;;;;;;;;;;31.60;25.10;;;;;;5028769;28;19986;-71
2022/03/28 12:09:16;;;;;;;;;;;31.70;24.40;;;;;;5028846;28;19956;-71
2022/03/28 12:11:47;;;;;;;;;;;32.10;24.20;;;;;;5028465;28;19916;-72
2022/03/28 12:14:13;;;;;;;;;;;33.00;24.00;;;;;;5029780;28;20115;-71
2022/03/28 12:16:55;;;;;;;;;;;34.20;23.60;;;;;;5053551;28;19908;-72
2022/03/28 12:19:27;;;;;;;;;;;34.80;23.50;;;;;;5048859;28;19913;-71
2022/03/28 12:21:54;;;;;;;;;;;35.10;23.00;;;;;;5048776;28;20215;-71
2022/03/28 12:24:20;;;;;;;;;;;36.10;22.30;;;;;;5066236;28;20115;-72
2022/03/28 12:26:47;;;;;;;;;;;37.10;22.20;;;;;;5055275;28;19909;-72
2022/03/28 12:29:14;;;;;;;;;;;37.60;21.50;;;;;;5046278;28;19909;-73
2022/03/28 12:31:44;;;;;;;;;;;38.50;21.30;;;;;;5028298;28;19909;-73
2022/03/28 12:34:11;;;;;;;;;;;38.80;21.10;;;;;;5046162;28;19909;-73
2022/03/28 12:36:37;;;;;;;;;;;38.80;20.10;;;;;;5054198;22;21197;-66
2022/03/28 12:39:07;;;;;;;;;;;38.20;20.00;;;;;;5073801;28;19923;-65
2022/03/28 12:41:43;;;;;;;;;;;38.30;20.30;;;;;;5084908;28;20147;-66
2022/03/28 12:44:16;;;;;;;;;;;37.90;19.90;;;;;;5085778;28;20222;-66
2022/03/28 12:46:44;;;;;;;;;;;38.70;19.80;;;;;;5081252;28;19909;-65
2022/03/28 12:49:13;;;;;;;;;;;39.20;19.60;;;;;;5047445;28;20081;-66
2022/03/28 12:51:40;;;;;;;;;;;38.50;19.80;;;;;;5064953;28;19909;-66
2022/03/28 12:54:26;;;;;;;;;;;38.10;19.60;;;;;;5065582;28;19931;-66
2022/03/28 12:56:54;;;;;;;;;;;37.80;19.20;;;;;;5045646;28;19909;-66
2022/03/28 12:59:24;;;;;;;;;;;38.70;19.70;;;;;;5065292;28;20030;-66
2022/03/28 13:01:50;;;;;;;;;;;38.70;19.40;;;;;;5051109;28;19917;-67
2022/03/28 13:04:21;;;;;;;;;;;38.60;19.20;;;;;;5044282;28;20135;-67
2022/03/28 13:06:58;;;;;;;;;;;38.30;19.50;;;;;;5044915;28;19988;-66
2022/03/28 13:09:23;;;;;;;;;;;39.70;19.90;;;;;;5044304;28;19915;-67
2022/03/28 13:11:49;;;;;;;;;;;39.50;19.20;;;;;;5044979;28;19936;-67
2022/03/28 13:14:26;;;;;;;;;;;38.60;19.00;;;;;;5045092;28;19909;-67
2022/03/28 13:17:08;;;;;;;;;;;39.20;19.20;;;;;;5045569;28;19913;-68
2022/03/28 13:19:35;;;;;;;;;;;38.80;19.30;;;;;;5045254;28;19913;-67
2022/03/28 13:22:01;;;;;;;;;;;39.00;19.20;;;;;;5044585;28;20276;-66
2022/03/28 13:24:27;;;;;;;;;;;38.30;18.90;;;;;;5044840;28;19909;-66
2022/03/28 13:28:01;;;;;;;;;;;37.70;19.10;;;;;;5045111;28;19963;-67
2022/03/28 13:29:39;;;;;;;;;;;37.60;19.20;;;;;;5044887;28;19960;-66
2022/03/28 13:32:05;;;;;;;;;;;36.00;19.20;;;;;;5044992;28;20000;-66
2022/03/28 13:34:31;;;;;;;;;;;36.30;19.30;;;;;;5044829;28;19976;-67
2022/03/28 13:36:58;;;;;;;;;;;36.90;19.50;;;;;;5044041;28;19960;-67
2022/03/28 13:39:23;;;;;;;;;;;37.80;19.60;;;;;;5044694;28;19920;-67
2022/03/28 13:41:49;;;;;;;;;;;38.20;19.40;;;;;;5044350;28;20263;-67
2022/03/28 13:44:15;;;;;;;;;;;38.40;19.40;;;;;;5044567;28;19972;-67
2022/03/28 13:46:41;;;;;;;;;;;37.50;19.00;;;;;;5044076;28;19913;-67
2022/03/28 13:49:07;;;;;;;;;;;37.00;19.70;;;;;;5044643;28;19909;-67
2022/03/28 13:51:33;;;;;;;;;;;38.00;19.80;;;;;;5043940;28;19936;-66
2022/03/28 13:53:59;;;;;;;;;;;37.40;19.30;;;;;;5044320;28;20098;-67
2022/03/28 13:56:25;;;;;;;;;;;37.90;19.30;;;;;;5043877;28;19916;-67
2022/03/28 13:58:51;;;;;;;;;;;37.60;19.20;;;;;;5043938;28;19913;-67
2022/03/28 14:01:16;;;;;;;;;;;38.10;19.40;;;;;;5044038;28;19916;-67
2022/03/28 14:03:42;;;;;;;;;;;37.70;19.30;;;;;;5044284;28;20108;-67
2022/03/28 14:06:08;;;;;;;;;;;37.70;19.10;;;;;;5044311;28;19909;-67
2022/03/28 14:08:36;;;;;;;;;;;37.30;19.10;;;;;;5025283;28;19955;-67
2022/03/28 14:11:06;;;;;;;;;;;36.90;18.80;;;;;;5026345;28;20108;-67
2022/03/28 14:13:32;;;;;;;;;;;37.60;19.00;;;;;;5044301;28;19915;-67
2022/03/28 14:15:58;;;;;;;;;;;37.70;18.80;;;;;;5044106;28;19910;-67
2022/03/28 14:18:25;;;;;;;;;;;37.50;19.20;;;;;;5043893;28;20015;-67
2022/03/28 14:20:51;;;;;;;;;;;37.00;19.00;;;;;;5026120;28;19924;-67
2022/03/28 14:23:17;;;;;;;;;;;37.50;19.10;;;;;;5043052;28;20196;-66
2022/03/28 14:25:43;;;;;;;;;;;36.50;18.80;;;;;;5043938;28;19909;-66
2022/03/28 14:28:09;;;;;;;;;;;35.50;18.90;;;;;;5042584;28;19909;-66
2022/03/28 14:30:35;;;;;;;;;;;34.90;19.10;;;;;;5042631;28;20111;-67
2022/03/28 14:33:01;;;;;;;;;;;35.90;19.20;;;;;;5025382;28;19916;-66
2022/03/28 14:35:27;;;;;;;;;;;35.70;19.00;;;;;;5026260;28;20204;-66